Hauptseite
METAR-TAF:

METAR-TAF

Flughäfen :

Flughafen Morlaix

Morlaix, Frankreich

Breite: 48-36N, Länge: 3-49W, Höhe: 84 m

Beobachtung

Neuester Wetterbericht von vor 11 Stunden und 52 Minuten, um 18:00 UTC
Wind 3 kt aus unterschiedlichen Richtungen
Temperatur 8°C
Luftfeuchtigkeit 76%
Luftdruck 1008 hPa
Sichtweite 10 km oder mehr
Durchbrochene Bewölkung in der Höhe von 4700 ft
Geschlossene Wolkendecke in der Höhe von 22000 ft

METAR: LFRU 161800Z AUTO VRB03KT 9999 BKN047 OVC220 08/04 Q1008

Zeit: 06:52 (05:52 UTC)


TAF: fehlend

Wetterbeobachtungen und Prognosen von mehr als 4000 Flughäfen (METAR und TAF Bericht).

Die verfügbaren Stationen werden durch gelbe und rote Markierungen auf der Karte dargestellt.

Führen Sie die Maus auf sie, um den Namen der Station zu sehen.

Darauf klicken, um die Beobachtung von Wetterbeobachtungen und Prognosen zu sehen.

Um die Karte zu ändern : klicken Sie auf den grünen Tasten mit einem schwarzen Kreuz Zum Vergrößern, auf den grünen Button mit einem Gedankenstrich zu verkleinern, oder auf die grünen Pfeile für benachbarte Karten.


METAR-TAF: